sensor_id;sensor_type;location;lat;lon;timestamp;temperature;humidity
23124;DHT22;11731;48.592;8.858;2023-08-08T00:01:09;15.20;99.90
23124;DHT22;11731;48.592;8.858;2023-08-08T00:03:36;15.20;99.90
23124;DHT22;11731;48.592;8.858;2023-08-08T00:06:03;15.20;99.90
23124;DHT22;11731;48.592;8.858;2023-08-08T00:08:30;15.20;99.90
23124;DHT22;11731;48.592;8.858;2023-08-08T00:10:56;15.10;99.90
23124;DHT22;11731;48.592;8.858;2023-08-08T00:13:25;14.80;99.90
23124;DHT22;11731;48.592;8.858;2023-08-08T00:15:52;14.70;99.90
23124;DHT22;11731;48.592;8.858;2023-08-08T00:18:18;14.80;99.90
23124;DHT22;11731;48.592;8.858;2023-08-08T00:20:45;14.80;99.90
23124;DHT22;11731;48.592;8.858;2023-08-08T00:23:12;14.80;99.90
23124;DHT22;11731;48.592;8.858;2023-08-08T00:25:39;14.70;99.90
23124;DHT22;11731;48.592;8.858;2023-08-08T00:28:05;14.80;99.90
23124;DHT22;11731;48.592;8.858;2023-08-08T00:30:34;14.70;99.90
23124;DHT22;11731;48.592;8.858;2023-08-08T00:33:00;14.80;99.90
23124;DHT22;11731;48.592;8.858;2023-08-08T00:35:26;14.80;99.90
23124;DHT22;11731;48.592;8.858;2023-08-08T00:37:53;14.90;99.90
23124;DHT22;11731;48.592;8.858;2023-08-08T00:40:20;15.10;99.90
23124;DHT22;11731;48.592;8.858;2023-08-08T00:42:46;15.30;99.90
23124;DHT22;11731;48.592;8.858;2023-08-08T00:45:13;15.20;99.90
23124;DHT22;11731;48.592;8.858;2023-08-08T00:47:41;15.30;99.90
23124;DHT22;11731;48.592;8.858;2023-08-08T00:50:09;15.50;99.90
23124;DHT22;11731;48.592;8.858;2023-08-08T00:52:37;15.30;99.90
23124;DHT22;11731;48.592;8.858;2023-08-08T00:55:05;15.20;99.90
23124;DHT22;11731;48.592;8.858;2023-08-08T00:57:33;15.30;99.90
23124;DHT22;11731;48.592;8.858;2023-08-08T01:00:05;15.30;99.90
23124;DHT22;11731;48.592;8.858;2023-08-08T01:02:32;15.20;99.90
23124;DHT22;11731;48.592;8.858;2023-08-08T01:05:00;15.10;99.90
23124;DHT22;11731;48.592;8.858;2023-08-08T01:07:32;15.00;99.90
23124;DHT22;11731;48.592;8.858;2023-08-08T01:10:05;15.00;99.90
23124;DHT22;11731;48.592;8.858;2023-08-08T01:12:35;14.70;99.90
23124;DHT22;11731;48.592;8.858;2023-08-08T01:15:06;14.60;99.90
23124;DHT22;11731;48.592;8.858;2023-08-08T01:17:33;14.70;99.90
23124;DHT22;11731;48.592;8.858;2023-08-08T01:20:03;14.80;99.90
23124;DHT22;11731;48.592;8.858;2023-08-08T01:22:36;14.70;99.90
23124;DHT22;11731;48.592;8.858;2023-08-08T01:25:05;14.80;99.90
23124;DHT22;11731;48.592;8.858;2023-08-08T01:27:33;14.80;99.90
23124;DHT22;11731;48.592;8.858;2023-08-08T01:29:59;14.70;99.90
23124;DHT22;11731;48.592;8.858;2023-08-08T01:32:26;14.70;99.90
23124;DHT22;11731;48.592;8.858;2023-08-08T01:34:53;14.60;99.90
23124;DHT22;11731;48.592;8.858;2023-08-08T01:37:24;14.50;99.90
23124;DHT22;11731;48.592;8.858;2023-08-08T01:39:53;14.50;99.90
23124;DHT22;11731;48.592;8.858;2023-08-08T01:42:23;14.30;99.90
23124;DHT22;11731;48.592;8.858;2023-08-08T01:44:51;14.40;99.90
23124;DHT22;11731;48.592;8.858;2023-08-08T01:47:19;14.50;99.90
23124;DHT22;11731;48.592;8.858;2023-08-08T01:49:46;14.50;99.90
23124;DHT22;11731;48.592;8.858;2023-08-08T01:52:13;14.50;99.90
23124;DHT22;11731;48.592;8.858;2023-08-08T01:54:39;14.40;99.90
23124;DHT22;11731;48.592;8.858;2023-08-08T01:57:07;14.20;99.90
23124;DHT22;11731;48.592;8.858;2023-08-08T01:59:35;14.30;99.90
23124;DHT22;11731;48.592;8.858;2023-08-08T02:02:02;14.20;99.90
23124;DHT22;11731;48.592;8.858;2023-08-08T02:04:29;14.30;99.90
23124;DHT22;11731;48.592;8.858;2023-08-08T02:06:56;14.60;99.90
23124;DHT22;11731;48.592;8.858;2023-08-08T02:09:23;14.50;99.90
23124;DHT22;11731;48.592;8.858;2023-08-08T02:11:50;14.60;99.90
23124;DHT22;11731;48.592;8.858;2023-08-08T02:14:16;14.70;99.90
23124;DHT22;11731;48.592;8.858;2023-08-08T02:16:45;14.90;99.90
23124;DHT22;11731;48.592;8.858;2023-08-08T02:19:11;14.90;99.90
23124;DHT22;11731;48.592;8.858;2023-08-08T02:21:38;15.00;99.90
23124;DHT22;11731;48.592;8.858;2023-08-08T02:24:05;15.00;99.90
23124;DHT22;11731;48.592;8.858;2023-08-08T02:26:32;14.90;99.90
23124;DHT22;11731;48.592;8.858;2023-08-08T02:28:59;15.00;99.90
23124;DHT22;11731;48.592;8.858;2023-08-08T02:31:25;15.00;99.90
23124;DHT22;11731;48.592;8.858;2023-08-08T02:33:53;14.80;99.90
23124;DHT22;11731;48.592;8.858;2023-08-08T02:36:21;14.50;99.90
23124;DHT22;11731;48.592;8.858;2023-08-08T02:38:48;14.30;99.90
23124;DHT22;11731;48.592;8.858;2023-08-08T02:41:15;14.20;99.90
23124;DHT22;11731;48.592;8.858;2023-08-08T02:43:42;14.20;99.90
23124;DHT22;11731;48.592;8.858;2023-08-08T02:46:08;14.30;99.90
23124;DHT22;11731;48.592;8.858;2023-08-08T02:48:35;14.50;99.90
23124;DHT22;11731;48.592;8.858;2023-08-08T02:51:03;14.60;99.90
23124;DHT22;11731;48.592;8.858;2023-08-08T02:53:30;14.50;99.90
23124;DHT22;11731;48.592;8.858;2023-08-08T02:55:57;14.50;99.90
23124;DHT22;11731;48.592;8.858;2023-08-08T02:58:23;14.40;99.90
23124;DHT22;11731;48.592;8.858;2023-08-08T03:00:50;14.50;99.90
23124;DHT22;11731;48.592;8.858;2023-08-08T03:03:18;14.50;99.90
23124;DHT22;11731;48.592;8.858;2023-08-08T03:05:45;14.80;99.90
23124;DHT22;11731;48.592;8.858;2023-08-08T03:08:13;14.90;99.90
23124;DHT22;11731;48.592;8.858;2023-08-08T03:10:40;14.90;99.90
23124;DHT22;11731;48.592;8.858;2023-08-08T03:13:07;15.10;99.90
23124;DHT22;11731;48.592;8.858;2023-08-08T03:15:34;15.00;99.90
23124;DHT22;11731;48.592;8.858;2023-08-08T03:18:01;15.10;99.90
23124;DHT22;11731;48.592;8.858;2023-08-08T03:20:28;15.10;99.90
23124;DHT22;11731;48.592;8.858;2023-08-08T03:22:55;14.90;99.90
23124;DHT22;11731;48.592;8.858;2023-08-08T03:25:23;14.60;99.90
23124;DHT22;11731;48.592;8.858;2023-08-08T03:27:50;14.60;99.90
23124;DHT22;11731;48.592;8.858;2023-08-08T03:30:17;14.60;99.90
23124;DHT22;11731;48.592;8.858;2023-08-08T03:32:44;14.50;99.90
23124;DHT22;11731;48.592;8.858;2023-08-08T03:35:10;14.50;99.90
23124;DHT22;11731;48.592;8.858;2023-08-08T03:37:37;14.30;99.90
23124;DHT22;11731;48.592;8.858;2023-08-08T03:40:05;14.30;99.90
23124;DHT22;11731;48.592;8.858;2023-08-08T03:42:34;14.40;99.90
23124;DHT22;11731;48.592;8.858;2023-08-08T03:45:01;14.60;99.90
23124;DHT22;11731;48.592;8.858;2023-08-08T03:47:28;14.80;99.90
23124;DHT22;11731;48.592;8.858;2023-08-08T03:49:55;14.90;99.90
23124;DHT22;11731;48.592;8.858;2023-08-08T03:52:23;14.70;99.90
23124;DHT22;11731;48.592;8.858;2023-08-08T03:54:49;14.80;99.90
23124;DHT22;11731;48.592;8.858;2023-08-08T03:57:16;14.70;99.90
23124;DHT22;11731;48.592;8.858;2023-08-08T03:59:44;14.70;99.90
23124;DHT22;11731;48.592;8.858;2023-08-08T04:02:11;14.60;99.90
23124;DHT22;11731;48.592;8.858;2023-08-08T04:04:38;14.50;99.90
23124;DHT22;11731;48.592;8.858;2023-08-08T04:07:05;14.50;99.90
23124;DHT22;11731;48.592;8.858;2023-08-08T04:09:32;14.40;99.90
23124;DHT22;11731;48.592;8.858;2023-08-08T04:11:58;14.20;99.90
23124;DHT22;11731;48.592;8.858;2023-08-08T04:14:25;14.20;99.90
23124;DHT22;11731;48.592;8.858;2023-08-08T04:16:53;14.20;99.90
23124;DHT22;11731;48.592;8.858;2023-08-08T04:19:20;13.90;99.90
23124;DHT22;11731;48.592;8.858;2023-08-08T04:21:48;13.90;99.90
23124;DHT22;11731;48.592;8.858;2023-08-08T04:24:15;13.80;99.90
23124;DHT22;11731;48.592;8.858;2023-08-08T04:26:42;13.80;99.90
23124;DHT22;11731;48.592;8.858;2023-08-08T04:29:09;13.80;99.90
23124;DHT22;11731;48.592;8.858;2023-08-08T04:31:35;13.80;99.90
23124;DHT22;11731;48.592;8.858;2023-08-08T04:34:03;13.80;99.90
23124;DHT22;11731;48.592;8.858;2023-08-08T04:36:30;13.70;99.90
23124;DHT22;11731;48.592;8.858;2023-08-08T04:38:57;13.80;99.90
23124;DHT22;11731;48.592;8.858;2023-08-08T04:41:24;14.00;99.90
23124;DHT22;11731;48.592;8.858;2023-08-08T04:43:51;13.90;99.90
23124;DHT22;11731;48.592;8.858;2023-08-08T04:46:18;13.70;99.90
23124;DHT22;11731;48.592;8.858;2023-08-08T04:48:44;13.50;99.90
23124;DHT22;11731;48.592;8.858;2023-08-08T04:51:12;13.60;99.90
23124;DHT22;11731;48.592;8.858;2023-08-08T04:53:39;13.60;99.90
23124;DHT22;11731;48.592;8.858;2023-08-08T04:56:06;13.70;99.90
23124;DHT22;11731;48.592;8.858;2023-08-08T04:58:33;13.70;99.90
23124;DHT22;11731;48.592;8.858;2023-08-08T05:00:59;13.90;99.90
23124;DHT22;11731;48.592;8.858;2023-08-08T05:03:26;13.90;99.90
23124;DHT22;11731;48.592;8.858;2023-08-08T05:05:53;14.10;99.90
23124;DHT22;11731;48.592;8.858;2023-08-08T05:08:21;13.90;99.90
23124;DHT22;11731;48.592;8.858;2023-08-08T05:10:48;14.00;99.90
23124;DHT22;11731;48.592;8.858;2023-08-08T05:13:15;14.40;99.90
23124;DHT22;11731;48.592;8.858;2023-08-08T05:15:41;14.50;99.90
23124;DHT22;11731;48.592;8.858;2023-08-08T05:18:08;14.50;99.90
23124;DHT22;11731;48.592;8.858;2023-08-08T05:20:35;14.70;99.90
23124;DHT22;11731;48.592;8.858;2023-08-08T05:23:02;14.70;99.90
23124;DHT22;11731;48.592;8.858;2023-08-08T05:25:30;14.70;99.90
23124;DHT22;11731;48.592;8.858;2023-08-08T05:27:57;14.70;99.90
23124;DHT22;11731;48.592;8.858;2023-08-08T05:30:23;14.90;99.90
23124;DHT22;11731;48.592;8.858;2023-08-08T05:32:50;15.00;99.90
23124;DHT22;11731;48.592;8.858;2023-08-08T05:35:17;15.10;99.90
23124;DHT22;11731;48.592;8.858;2023-08-08T05:37:44;15.00;99.90
23124;DHT22;11731;48.592;8.858;2023-08-08T05:40:11;15.20;99.90
23124;DHT22;11731;48.592;8.858;2023-08-08T05:42:39;15.10;99.90
23124;DHT22;11731;48.592;8.858;2023-08-08T05:45:07;15.20;99.90
23124;DHT22;11731;48.592;8.858;2023-08-08T05:47:34;15.60;99.90
23124;DHT22;11731;48.592;8.858;2023-08-08T05:50:01;15.70;99.90
23124;DHT22;11731;48.592;8.858;2023-08-08T05:52:29;15.70;99.90
23124;DHT22;11731;48.592;8.858;2023-08-08T05:54:56;15.90;99.90
23124;DHT22;11731;48.592;8.858;2023-08-08T05:57:24;15.90;99.90
23124;DHT22;11731;48.592;8.858;2023-08-08T05:59:52;15.90;99.90
23124;DHT22;11731;48.592;8.858;2023-08-08T06:02:19;15.90;99.90
23124;DHT22;11731;48.592;8.858;2023-08-08T06:04:46;15.90;99.90
23124;DHT22;11731;48.592;8.858;2023-08-08T06:07:13;16.10;99.90
23124;DHT22;11731;48.592;8.858;2023-08-08T06:09:40;16.40;99.90
23124;DHT22;11731;48.592;8.858;2023-08-08T06:12:07;16.40;99.90
23124;DHT22;11731;48.592;8.858;2023-08-08T06:14:34;16.50;99.90
23124;DHT22;11731;48.592;8.858;2023-08-08T06:17:03;16.70;99.90
23124;DHT22;11731;48.592;8.858;2023-08-08T06:19:31;16.80;99.90
23124;DHT22;11731;48.592;8.858;2023-08-08T06:21:57;17.00;99.90
23124;DHT22;11731;48.592;8.858;2023-08-08T06:24:24;17.20;99.90
23124;DHT22;11731;48.592;8.858;2023-08-08T06:26:51;17.50;99.90
23124;DHT22;11731;48.592;8.858;2023-08-08T06:29:18;17.50;99.90
23124;DHT22;11731;48.592;8.858;2023-08-08T06:31:45;17.80;99.90
23124;DHT22;11731;48.592;8.858;2023-08-08T06:34:13;17.70;99.90
23124;DHT22;11731;48.592;8.858;2023-08-08T06:36:40;18.00;99.90
23124;DHT22;11731;48.592;8.858;2023-08-08T06:39:07;18.20;99.90
23124;DHT22;11731;48.592;8.858;2023-08-08T06:41:34;18.30;99.90
23124;DHT22;11731;48.592;8.858;2023-08-08T06:44:01;18.10;99.90
23124;DHT22;11731;48.592;8.858;2023-08-08T06:46:28;18.20;99.90
23124;DHT22;11731;48.592;8.858;2023-08-08T06:48:55;18.50;99.90
23124;DHT22;11731;48.592;8.858;2023-08-08T06:51:25;18.70;99.90
23124;DHT22;11731;48.592;8.858;2023-08-08T06:53:52;18.70;99.90
23124;DHT22;11731;48.592;8.858;2023-08-08T06:56:19;17.90;99.90
23124;DHT22;11731;48.592;8.858;2023-08-08T06:58:46;17.50;99.90
23124;DHT22;11731;48.592;8.858;2023-08-08T07:01:13;17.40;99.90
23124;DHT22;11731;48.592;8.858;2023-08-08T07:03:40;17.30;99.90
23124;DHT22;11731;48.592;8.858;2023-08-08T07:06:07;17.70;99.90
23124;DHT22;11731;48.592;8.858;2023-08-08T07:08:35;17.80;99.90
23124;DHT22;11731;48.592;8.858;2023-08-08T07:11:05;18.10;99.90
23124;DHT22;11731;48.592;8.858;2023-08-08T07:13:32;18.20;99.90
23124;DHT22;11731;48.592;8.858;2023-08-08T07:15:59;17.70;99.90
23124;DHT22;11731;48.592;8.858;2023-08-08T07:18:26;17.50;99.90
23124;DHT22;11731;48.592;8.858;2023-08-08T07:20:53;17.50;99.90
23124;DHT22;11731;48.592;8.858;2023-08-08T07:23:19;17.50;99.90
23124;DHT22;11731;48.592;8.858;2023-08-08T07:25:48;17.50;99.90
23124;DHT22;11731;48.592;8.858;2023-08-08T07:28:15;17.40;99.90
23124;DHT22;11731;48.592;8.858;2023-08-08T07:30:42;17.50;99.90
23124;DHT22;11731;48.592;8.858;2023-08-08T07:33:08;17.80;99.90
23124;DHT22;11731;48.592;8.858;2023-08-08T07:35:35;17.50;99.90
23124;DHT22;11731;48.592;8.858;2023-08-08T07:38:02;17.50;99.90
23124;DHT22;11731;48.592;8.858;2023-08-08T07:40:29;17.40;99.90
23124;DHT22;11731;48.592;8.858;2023-08-08T07:42:58;17.40;99.90
23124;DHT22;11731;48.592;8.858;2023-08-08T07:45:24;17.50;99.90
23124;DHT22;11731;48.592;8.858;2023-08-08T07:47:51;17.70;99.90
23124;DHT22;11731;48.592;8.858;2023-08-08T07:50:18;18.00;99.90
23124;DHT22;11731;48.592;8.858;2023-08-08T07:52:45;18.10;99.90
23124;DHT22;11731;48.592;8.858;2023-08-08T07:55:12;18.20;99.90
23124;DHT22;11731;48.592;8.858;2023-08-08T07:57:39;18.40;99.90
23124;DHT22;11731;48.592;8.858;2023-08-08T08:00:08;18.50;99.90
23124;DHT22;11731;48.592;8.858;2023-08-08T08:02:37;18.40;99.90
23124;DHT22;11731;48.592;8.858;2023-08-08T08:05:04;18.20;99.90
23124;DHT22;11731;48.592;8.858;2023-08-08T08:07:33;18.50;99.90
23124;DHT22;11731;48.592;8.858;2023-08-08T08:10:00;18.70;99.90
23124;DHT22;11731;48.592;8.858;2023-08-08T08:12:29;18.50;99.90
23124;DHT22;11731;48.592;8.858;2023-08-08T08:14:56;18.60;99.90
23124;DHT22;11731;48.592;8.858;2023-08-08T08:17:24;18.60;99.90
23124;DHT22;11731;48.592;8.858;2023-08-08T08:19:53;18.90;99.90
23124;DHT22;11731;48.592;8.858;2023-08-08T08:22:20;18.90;99.90
23124;DHT22;11731;48.592;8.858;2023-08-08T08:24:47;19.20;99.90
23124;DHT22;11731;48.592;8.858;2023-08-08T08:27:13;19.20;99.90
23124;DHT22;11731;48.592;8.858;2023-08-08T08:29:40;19.50;99.90
23124;DHT22;11731;48.592;8.858;2023-08-08T08:32:07;19.70;99.90
23124;DHT22;11731;48.592;8.858;2023-08-08T08:34:35;19.80;99.90
23124;DHT22;11731;48.592;8.858;2023-08-08T08:37:03;20.00;99.90
23124;DHT22;11731;48.592;8.858;2023-08-08T08:39:29;20.40;99.90
23124;DHT22;11731;48.592;8.858;2023-08-08T08:41:59;20.50;99.90
23124;DHT22;11731;48.592;8.858;2023-08-08T08:44:30;20.70;99.90
23124;DHT22;11731;48.592;8.858;2023-08-08T08:46:59;20.60;99.90
23124;DHT22;11731;48.592;8.858;2023-08-08T08:49:29;20.20;99.90
23124;DHT22;11731;48.592;8.858;2023-08-08T08:51:59;20.00;99.90
23124;DHT22;11731;48.592;8.858;2023-08-08T08:54:27;20.00;99.90
23124;DHT22;11731;48.592;8.858;2023-08-08T08:56:55;20.10;99.90
23124;DHT22;11731;48.592;8.858;2023-08-08T08:59:23;20.10;99.90
23124;DHT22;11731;48.592;8.858;2023-08-08T09:01:50;19.70;99.90
23124;DHT22;11731;48.592;8.858;2023-08-08T09:04:19;19.80;99.90
23124;DHT22;11731;48.592;8.858;2023-08-08T09:06:47;19.90;99.90
23124;DHT22;11731;48.592;8.858;2023-08-08T09:09:16;20.20;99.90
23124;DHT22;11731;48.592;8.858;2023-08-08T09:11:45;20.30;99.90
23124;DHT22;11731;48.592;8.858;2023-08-08T09:14:18;20.50;99.90
23124;DHT22;11731;48.592;8.858;2023-08-08T09:16:45;20.40;99.90
23124;DHT22;11731;48.592;8.858;2023-08-08T09:19:12;20.50;99.90
23124;DHT22;11731;48.592;8.858;2023-08-08T09:21:39;20.40;99.90
23124;DHT22;11731;48.592;8.858;2023-08-08T09:24:07;20.50;99.90
23124;DHT22;11731;48.592;8.858;2023-08-08T09:26:35;20.40;99.90
23124;DHT22;11731;48.592;8.858;2023-08-08T09:29:02;20.50;99.90
23124;DHT22;11731;48.592;8.858;2023-08-08T09:31:29;20.40;99.90
23124;DHT22;11731;48.592;8.858;2023-08-08T09:33:57;20.30;99.90
23124;DHT22;11731;48.592;8.858;2023-08-08T09:36:24;20.30;99.90
23124;DHT22;11731;48.592;8.858;2023-08-08T09:38:52;20.40;99.90
23124;DHT22;11731;48.592;8.858;2023-08-08T09:41:19;20.40;99.90
23124;DHT22;11731;48.592;8.858;2023-08-08T09:43:49;20.30;99.90
23124;DHT22;11731;48.592;8.858;2023-08-08T09:46:16;20.20;99.90
23124;DHT22;11731;48.592;8.858;2023-08-08T09:48:43;20.30;99.90
23124;DHT22;11731;48.592;8.858;2023-08-08T09:51:10;20.30;99.90
23124;DHT22;11731;48.592;8.858;2023-08-08T09:53:38;20.70;99.90
23124;DHT22;11731;48.592;8.858;2023-08-08T09:56:06;20.60;99.90
23124;DHT22;11731;48.592;8.858;2023-08-08T09:58:33;20.60;99.90
23124;DHT22;11731;48.592;8.858;2023-08-08T10:01:01;20.40;99.90
23124;DHT22;11731;48.592;8.858;2023-08-08T10:03:31;20.40;99.90
23124;DHT22;11731;48.592;8.858;2023-08-08T10:05:58;20.40;99.90
23124;DHT22;11731;48.592;8.858;2023-08-08T10:08:25;20.30;99.90
23124;DHT22;11731;48.592;8.858;2023-08-08T10:10:52;20.60;99.90
23124;DHT22;11731;48.592;8.858;2023-08-08T10:13:20;20.90;99.90
23124;DHT22;11731;48.592;8.858;2023-08-08T10:15:47;20.90;99.90
23124;DHT22;11731;48.592;8.858;2023-08-08T10:18:16;21.10;99.90
23124;DHT22;11731;48.592;8.858;2023-08-08T10:20:43;21.50;99.90
23124;DHT22;11731;48.592;8.858;2023-08-08T10:23:11;21.50;99.90
23124;DHT22;11731;48.592;8.858;2023-08-08T10:25:44;21.50;99.90
23124;DHT22;11731;48.592;8.858;2023-08-08T10:28:12;21.50;99.90
23124;DHT22;11731;48.592;8.858;2023-08-08T10:30:44;21.30;99.90
23124;DHT22;11731;48.592;8.858;2023-08-08T10:33:20;20.90;99.90
23124;DHT22;11731;48.592;8.858;2023-08-08T10:35:54;20.80;99.90
23124;DHT22;11731;48.592;8.858;2023-08-08T10:38:23;20.70;99.90
23124;DHT22;11731;48.592;8.858;2023-08-08T10:40:56;20.60;99.40
23124;DHT22;11731;48.592;8.858;2023-08-08T10:43:26;20.80;99.80
23124;DHT22;11731;48.592;8.858;2023-08-08T10:45:57;20.90;99.90
23124;DHT22;11731;48.592;8.858;2023-08-08T10:48:26;21.10;99.90
23124;DHT22;11731;48.592;8.858;2023-08-08T10:50:55;21.20;99.40
23124;DHT22;11731;48.592;8.858;2023-08-08T10:53:23;21.10;99.20
23124;DHT22;11731;48.592;8.858;2023-08-08T10:55:58;21.30;99.90
23124;DHT22;11731;48.592;8.858;2023-08-08T10:58:36;21.10;99.20
23124;DHT22;11731;48.592;8.858;2023-08-08T11:01:03;21.00;98.40
23124;DHT22;11731;48.592;8.858;2023-08-08T11:03:35;21.00;99.00
23124;DHT22;11731;48.592;8.858;2023-08-08T11:06:02;21.30;99.10
23124;DHT22;11731;48.592;8.858;2023-08-08T11:08:30;21.40;97.70
23124;DHT22;11731;48.592;8.858;2023-08-08T11:10:57;21.50;98.10
23124;DHT22;11731;48.592;8.858;2023-08-08T11:13:25;21.30;97.90
23124;DHT22;11731;48.592;8.858;2023-08-08T11:15:52;21.50;99.30
23124;DHT22;11731;48.592;8.858;2023-08-08T11:18:19;21.80;99.70
23124;DHT22;11731;48.592;8.858;2023-08-08T11:20:49;21.40;97.80
23124;DHT22;11731;48.592;8.858;2023-08-08T11:23:16;21.30;98.40
23124;DHT22;11731;48.592;8.858;2023-08-08T11:25:45;21.40;97.40
23124;DHT22;11731;48.592;8.858;2023-08-08T11:28:12;21.20;98.20
23124;DHT22;11731;48.592;8.858;2023-08-08T11:30:41;21.20;98.30
23124;DHT22;11731;48.592;8.858;2023-08-08T11:33:09;20.90;98.40
23124;DHT22;11731;48.592;8.858;2023-08-08T11:35:36;21.00;98.40
23124;DHT22;11731;48.592;8.858;2023-08-08T11:38:05;21.00;97.90
23124;DHT22;11731;48.592;8.858;2023-08-08T11:40:32;21.30;98.30
23124;DHT22;11731;48.592;8.858;2023-08-08T11:43:00;21.80;97.90
23124;DHT22;11731;48.592;8.858;2023-08-08T11:45:27;21.80;96.60
23124;DHT22;11731;48.592;8.858;2023-08-08T11:47:54;21.30;96.20
23124;DHT22;11731;48.592;8.858;2023-08-08T11:50:24;20.80;96.50
23124;DHT22;11731;48.592;8.858;2023-08-08T11:52:52;20.90;98.40
23124;DHT22;11731;48.592;8.858;2023-08-08T11:55:21;21.30;97.60
23124;DHT22;11731;48.592;8.858;2023-08-08T11:57:49;21.50;95.80
23124;DHT22;11731;48.592;8.858;2023-08-08T12:00:16;21.40;96.60
23124;DHT22;11731;48.592;8.858;2023-08-08T12:02:44;21.30;97.20
23124;DHT22;11731;48.592;8.858;2023-08-08T12:05:13;21.20;96.10
23124;DHT22;11731;48.592;8.858;2023-08-08T12:07:42;21.30;96.50
23124;DHT22;11731;48.592;8.858;2023-08-08T12:10:14;21.30;96.30
23124;DHT22;11731;48.592;8.858;2023-08-08T12:12:43;21.60;96.10
23124;DHT22;11731;48.592;8.858;2023-08-08T12:15:10;21.60;96.90
23124;DHT22;11731;48.592;8.858;2023-08-08T12:17:38;21.90;96.80
23124;DHT22;11731;48.592;8.858;2023-08-08T12:20:07;22.00;97.10
23124;DHT22;11731;48.592;8.858;2023-08-08T12:22:35;22.10;97.50
23124;DHT22;11731;48.592;8.858;2023-08-08T12:25:02;22.10;97.50
23124;DHT22;11731;48.592;8.858;2023-08-08T12:27:30;21.90;97.00
23124;DHT22;11731;48.592;8.858;2023-08-08T12:29:58;22.10;96.80
23124;DHT22;11731;48.592;8.858;2023-08-08T12:32:26;22.20;97.00
23124;DHT22;11731;48.592;8.858;2023-08-08T12:34:54;22.10;97.30
23124;DHT22;11731;48.592;8.858;2023-08-08T12:37:21;22.10;96.30
23124;DHT22;11731;48.592;8.858;2023-08-08T12:39:48;22.00;96.00
23124;DHT22;11731;48.592;8.858;2023-08-08T12:42:15;22.00;95.70
23124;DHT22;11731;48.592;8.858;2023-08-08T12:44:42;22.10;96.70
23124;DHT22;11731;48.592;8.858;2023-08-08T12:47:10;21.80;96.50
23124;DHT22;11731;48.592;8.858;2023-08-08T12:49:37;21.60;95.70
23124;DHT22;11731;48.592;8.858;2023-08-08T12:52:04;21.50;95.50
23124;DHT22;11731;48.592;8.858;2023-08-08T12:54:31;21.40;95.90
23124;DHT22;11731;48.592;8.858;2023-08-08T12:56:59;21.40;96.60
23124;DHT22;11731;48.592;8.858;2023-08-08T12:59:26;21.90;96.60
23124;DHT22;11731;48.592;8.858;2023-08-08T13:01:53;22.30;96.50
23124;DHT22;11731;48.592;8.858;2023-08-08T13:04:21;22.40;96.70
23124;DHT22;11731;48.592;8.858;2023-08-08T13:06:48;22.50;97.40
23124;DHT22;11731;48.592;8.858;2023-08-08T13:09:15;22.30;98.20
23124;DHT22;11731;48.592;8.858;2023-08-08T13:11:42;22.40;96.90
23124;DHT22;11731;48.592;8.858;2023-08-08T13:14:09;22.30;97.20
23124;DHT22;11731;48.592;8.858;2023-08-08T13:16:36;22.50;96.50
23124;DHT22;11731;48.592;8.858;2023-08-08T13:19:03;22.50;97.00
23124;DHT22;11731;48.592;8.858;2023-08-08T13:21:32;22.50;97.30
23124;DHT22;11731;48.592;8.858;2023-08-08T13:23:59;22.70;96.50
23124;DHT22;11731;48.592;8.858;2023-08-08T13:26:26;22.80;96.50
23124;DHT22;11731;48.592;8.858;2023-08-08T13:28:53;22.60;96.10
23124;DHT22;11731;48.592;8.858;2023-08-08T13:31:20;23.00;95.70
23124;DHT22;11731;48.592;8.858;2023-08-08T13:33:46;23.10;96.30
23124;DHT22;11731;48.592;8.858;2023-08-08T13:36:13;23.50;95.60
23124;DHT22;11731;48.592;8.858;2023-08-08T13:38:41;23.20;96.00
23124;DHT22;11731;48.592;8.858;2023-08-08T13:41:08;22.80;96.70
23124;DHT22;11731;48.592;8.858;2023-08-08T13:43:35;22.60;95.90
23124;DHT22;11731;48.592;8.858;2023-08-08T13:46:02;22.60;96.60
23124;DHT22;11731;48.592;8.858;2023-08-08T13:48:33;22.40;96.10
23124;DHT22;11731;48.592;8.858;2023-08-08T13:51:00;21.80;96.60
23124;DHT22;11731;48.592;8.858;2023-08-08T13:53:27;21.70;97.50
23124;DHT22;11731;48.592;8.858;2023-08-08T13:55:55;21.60;97.70
23124;DHT22;11731;48.592;8.858;2023-08-08T13:58:22;21.50;97.90
23124;DHT22;11731;48.592;8.858;2023-08-08T14:00:49;21.30;98.50
23124;DHT22;11731;48.592;8.858;2023-08-08T14:03:16;21.30;99.00
23124;DHT22;11731;48.592;8.858;2023-08-08T14:05:44;21.30;98.80
23124;DHT22;11731;48.592;8.858;2023-08-08T14:08:10;21.30;98.60
23124;DHT22;11731;48.592;8.858;2023-08-08T14:10:37;21.50;99.00
23124;DHT22;11731;48.592;8.858;2023-08-08T14:13:05;21.60;99.00
23124;DHT22;11731;48.592;8.858;2023-08-08T14:15:32;22.00;98.90
23124;DHT22;11731;48.592;8.858;2023-08-08T14:17:59;22.00;98.70
23124;DHT22;11731;48.592;8.858;2023-08-08T14:20:26;22.00;98.70
23124;DHT22;11731;48.592;8.858;2023-08-08T14:22:53;22.10;99.00
23124;DHT22;11731;48.592;8.858;2023-08-08T14:25:21;22.50;98.80
23124;DHT22;11731;48.592;8.858;2023-08-08T14:27:48;22.50;98.80
23124;DHT22;11731;48.592;8.858;2023-08-08T14:30:16;22.80;98.60
23124;DHT22;11731;48.592;8.858;2023-08-08T14:32:43;23.40;99.00
23124;DHT22;11731;48.592;8.858;2023-08-08T14:35:10;23.70;97.20
23124;DHT22;11731;48.592;8.858;2023-08-08T14:37:38;23.70;97.30
23124;DHT22;11731;48.592;8.858;2023-08-08T14:40:06;23.40;97.50
23124;DHT22;11731;48.592;8.858;2023-08-08T14:42:34;23.10;97.90
23124;DHT22;11731;48.592;8.858;2023-08-08T14:45:01;22.90;98.30
23124;DHT22;11731;48.592;8.858;2023-08-08T14:47:29;22.80;98.20
23124;DHT22;11731;48.592;8.858;2023-08-08T14:49:56;22.90;98.00
23124;DHT22;11731;48.592;8.858;2023-08-08T14:52:22;22.80;98.10
23124;DHT22;11731;48.592;8.858;2023-08-08T14:54:50;22.70;98.70
23124;DHT22;11731;48.592;8.858;2023-08-08T14:57:17;22.30;98.70
23124;DHT22;11731;48.592;8.858;2023-08-08T14:59:44;21.80;98.70
23124;DHT22;11731;48.592;8.858;2023-08-08T15:02:11;21.70;99.20
23124;DHT22;11731;48.592;8.858;2023-08-08T15:04:39;21.90;99.60
23124;DHT22;11731;48.592;8.858;2023-08-08T15:07:06;22.10;99.10
23124;DHT22;11731;48.592;8.858;2023-08-08T15:09:33;22.10;98.80
23124;DHT22;11731;48.592;8.858;2023-08-08T15:11:59;22.40;98.30
23124;DHT22;11731;48.592;8.858;2023-08-08T15:14:26;22.70;98.60
23124;DHT22;11731;48.592;8.858;2023-08-08T15:16:53;22.50;99.10
23124;DHT22;11731;48.592;8.858;2023-08-08T15:19:20;22.60;98.80
23124;DHT22;11731;48.592;8.858;2023-08-08T15:21:48;22.50;99.00
23124;DHT22;11731;48.592;8.858;2023-08-08T15:24:15;22.20;99.60
23124;DHT22;11731;48.592;8.858;2023-08-08T15:26:42;22.10;99.50
23124;DHT22;11731;48.592;8.858;2023-08-08T15:29:09;21.90;99.30
23124;DHT22;11731;48.592;8.858;2023-08-08T15:31:36;21.50;99.90